sensor_id;sensor_type;location;lat;lon;timestamp;P1;durP1;ratioP1;P2;durP2;ratioP2
57573;SDS011;43409;48.858;21.906;2022-07-10T00:02:19;0.98;;;0.93;;
57573;SDS011;43409;48.858;21.906;2022-07-10T00:04:45;1.52;;;1.10;;
57573;SDS011;43409;48.858;21.906;2022-07-10T00:07:10;1.55;;;1.10;;
57573;SDS011;43409;48.858;21.906;2022-07-10T00:09:36;1.20;;;1.10;;
57573;SDS011;43409;48.858;21.906;2022-07-10T00:12:01;0.93;;;0.93;;
57573;SDS011;43409;48.858;21.906;2022-07-10T00:14:27;1.10;;;1.00;;
57573;SDS011;43409;48.858;21.906;2022-07-10T00:16:52;3.42;;;1.15;;
57573;SDS011;43409;48.858;21.906;2022-07-10T00:19:18;1.10;;;1.00;;
57573;SDS011;43409;48.858;21.906;2022-07-10T00:21:43;2.28;;;0.80;;
57573;SDS011;43409;48.858;21.906;2022-07-10T00:24:08;1.23;;;0.95;;
57573;SDS011;43409;48.858;21.906;2022-07-10T00:26:35;1.27;;;1.17;;
57573;SDS011;43409;48.858;21.906;2022-07-10T00:29:01;1.30;;;0.90;;
57573;SDS011;43409;48.858;21.906;2022-07-10T00:31:26;3.10;;;1.05;;
57573;SDS011;43409;48.858;21.906;2022-07-10T00:33:52;6.82;;;1.10;;
57573;SDS011;43409;48.858;21.906;2022-07-10T00:36:17;1.70;;;1.10;;
57573;SDS011;43409;48.858;21.906;2022-07-10T00:38:42;1.00;;;0.90;;
57573;SDS011;43409;48.858;21.906;2022-07-10T00:41:08;3.13;;;0.80;;
57573;SDS011;43409;48.858;21.906;2022-07-10T00:43:52;0.98;;;0.88;;
57573;SDS011;43409;48.858;21.906;2022-07-10T00:46:22;2.75;;;1.30;;
57573;SDS011;43409;48.858;21.906;2022-07-10T00:48:49;2.50;;;0.93;;
57573;SDS011;43409;48.858;21.906;2022-07-10T00:51:15;1.23;;;1.13;;
57573;SDS011;43409;48.858;21.906;2022-07-10T00:53:42;3.40;;;1.10;;
57573;SDS011;43409;48.858;21.906;2022-07-10T00:56:10;1.75;;;1.08;;
57573;SDS011;43409;48.858;21.906;2022-07-10T00:58:36;1.13;;;1.00;;
57573;SDS011;43409;48.858;21.906;2022-07-10T01:01:04;2.22;;;1.30;;
57573;SDS011;43409;48.858;21.906;2022-07-10T01:03:30;1.27;;;1.20;;
57573;SDS011;43409;48.858;21.906;2022-07-10T01:05:55;1.35;;;1.00;;
57573;SDS011;43409;48.858;21.906;2022-07-10T01:08:20;3.00;;;1.35;;
57573;SDS011;43409;48.858;21.906;2022-07-10T01:10:46;1.40;;;1.25;;
57573;SDS011;43409;48.858;21.906;2022-07-10T01:13:12;1.75;;;1.25;;
57573;SDS011;43409;48.858;21.906;2022-07-10T01:15:38;1.73;;;1.30;;
57573;SDS011;43409;48.858;21.906;2022-07-10T01:18:04;1.20;;;1.10;;
57573;SDS011;43409;48.858;21.906;2022-07-10T01:20:30;1.38;;;1.27;;
57573;SDS011;43409;48.858;21.906;2022-07-10T01:23:00;1.27;;;1.13;;
57573;SDS011;43409;48.858;21.906;2022-07-10T01:25:26;1.55;;;1.00;;
57573;SDS011;43409;48.858;21.906;2022-07-10T01:27:51;1.92;;;1.17;;
57573;SDS011;43409;48.858;21.906;2022-07-10T01:30:17;1.02;;;1.00;;
57573;SDS011;43409;48.858;21.906;2022-07-10T01:32:44;1.33;;;1.13;;
57573;SDS011;43409;48.858;21.906;2022-07-10T01:35:10;1.25;;;1.15;;
57573;SDS011;43409;48.858;21.906;2022-07-10T01:37:36;1.88;;;1.30;;
57573;SDS011;43409;48.858;21.906;2022-07-10T01:40:02;1.98;;;1.10;;
57573;SDS011;43409;48.858;21.906;2022-07-10T01:42:28;1.20;;;1.10;;
57573;SDS011;43409;48.858;21.906;2022-07-10T01:44:53;1.25;;;1.10;;
57573;SDS011;43409;48.858;21.906;2022-07-10T01:47:19;1.20;;;1.10;;
57573;SDS011;43409;48.858;21.906;2022-07-10T01:49:49;2.00;;;1.00;;
57573;SDS011;43409;48.858;21.906;2022-07-10T01:52:15;1.17;;;1.08;;
57573;SDS011;43409;48.858;21.906;2022-07-10T01:54:40;1.33;;;1.23;;
57573;SDS011;43409;48.858;21.906;2022-07-10T01:57:06;1.08;;;0.98;;
57573;SDS011;43409;48.858;21.906;2022-07-10T01:59:31;1.33;;;1.10;;
57573;SDS011;43409;48.858;21.906;2022-07-10T02:01:57;1.20;;;1.10;;
57573;SDS011;43409;48.858;21.906;2022-07-10T02:04:22;1.38;;;1.27;;
57573;SDS011;43409;48.858;21.906;2022-07-10T02:07:15;1.48;;;1.10;;
57573;SDS011;43409;48.858;21.906;2022-07-10T02:09:43;1.17;;;1.08;;
57573;SDS011;43409;48.858;21.906;2022-07-10T02:12:10;1.20;;;1.08;;
57573;SDS011;43409;48.858;21.906;2022-07-10T02:14:38;1.92;;;1.00;;
57573;SDS011;43409;48.858;21.906;2022-07-10T02:17:04;1.20;;;1.10;;
57573;SDS011;43409;48.858;21.906;2022-07-10T02:19:30;1.55;;;1.23;;
57573;SDS011;43409;48.858;21.906;2022-07-10T02:21:56;3.97;;;1.00;;
57573;SDS011;43409;48.858;21.906;2022-07-10T02:24:21;1.50;;;1.10;;
57573;SDS011;43409;48.858;21.906;2022-07-10T02:26:47;1.60;;;1.30;;
57573;SDS011;43409;48.858;21.906;2022-07-10T02:29:13;1.23;;;1.13;;
57573;SDS011;43409;48.858;21.906;2022-07-10T02:31:38;1.80;;;0.85;;
57573;SDS011;43409;48.858;21.906;2022-07-10T02:34:07;1.63;;;1.20;;
57573;SDS011;43409;48.858;21.906;2022-07-10T02:36:33;1.17;;;1.08;;
57573;SDS011;43409;48.858;21.906;2022-07-10T02:38:59;1.05;;;0.90;;
57573;SDS011;43409;48.858;21.906;2022-07-10T02:41:24;1.20;;;1.10;;
57573;SDS011;43409;48.858;21.906;2022-07-10T02:43:50;1.95;;;1.08;;
57573;SDS011;43409;48.858;21.906;2022-07-10T02:46:16;1.38;;;1.25;;
57573;SDS011;43409;48.858;21.906;2022-07-10T02:48:41;1.15;;;1.05;;
57573;SDS011;43409;48.858;21.906;2022-07-10T02:51:06;1.10;;;1.00;;
57573;SDS011;43409;48.858;21.906;2022-07-10T02:53:32;1.65;;;1.00;;
57573;SDS011;43409;48.858;21.906;2022-07-10T02:55:57;1.30;;;1.20;;
57573;SDS011;43409;48.858;21.906;2022-07-10T02:58:23;3.55;;;1.30;;
57573;SDS011;43409;48.858;21.906;2022-07-10T03:00:48;3.38;;;0.95;;
57573;SDS011;43409;48.858;21.906;2022-07-10T03:03:14;1.20;;;1.10;;
57573;SDS011;43409;48.858;21.906;2022-07-10T03:05:41;1.15;;;1.05;;
57573;SDS011;43409;48.858;21.906;2022-07-10T03:08:07;1.00;;;1.00;;
57573;SDS011;43409;48.858;21.906;2022-07-10T03:10:32;0.95;;;0.95;;
57573;SDS011;43409;48.858;21.906;2022-07-10T03:12:58;1.20;;;1.10;;
57573;SDS011;43409;48.858;21.906;2022-07-10T03:15:23;1.30;;;1.17;;
57573;SDS011;43409;48.858;21.906;2022-07-10T03:17:49;1.48;;;1.20;;
57573;SDS011;43409;48.858;21.906;2022-07-10T03:20:14;3.45;;;1.73;;
57573;SDS011;43409;48.858;21.906;2022-07-10T03:22:40;1.90;;;1.70;;
57573;SDS011;43409;48.858;21.906;2022-07-10T03:25:05;2.85;;;1.30;;
57573;SDS011;43409;48.858;21.906;2022-07-10T03:27:31;2.15;;;1.40;;
57573;SDS011;43409;48.858;21.906;2022-07-10T03:29:56;5.93;;;1.27;;
57573;SDS011;43409;48.858;21.906;2022-07-10T03:32:22;1.52;;;1.40;;
57573;SDS011;43409;48.858;21.906;2022-07-10T03:34:47;1.58;;;1.30;;
57573;SDS011;43409;48.858;21.906;2022-07-10T03:37:12;1.40;;;1.30;;
57573;SDS011;43409;48.858;21.906;2022-07-10T03:39:38;1.20;;;1.10;;
57573;SDS011;43409;48.858;21.906;2022-07-10T03:42:03;3.20;;;1.17;;
57573;SDS011;43409;48.858;21.906;2022-07-10T03:44:29;1.55;;;1.45;;
57573;SDS011;43409;48.858;21.906;2022-07-10T03:46:55;1.10;;;1.00;;
57573;SDS011;43409;48.858;21.906;2022-07-10T03:49:20;1.63;;;1.20;;
57573;SDS011;43409;48.858;21.906;2022-07-10T03:51:46;2.38;;;1.25;;
57573;SDS011;43409;48.858;21.906;2022-07-10T03:54:11;1.95;;;1.27;;
57573;SDS011;43409;48.858;21.906;2022-07-10T03:56:36;1.55;;;1.38;;
57573;SDS011;43409;48.858;21.906;2022-07-10T03:59:20;1.33;;;1.23;;
57573;SDS011;43409;48.858;21.906;2022-07-10T04:01:46;3.22;;;0.98;;
57573;SDS011;43409;48.858;21.906;2022-07-10T04:04:11;1.33;;;0.95;;
57573;SDS011;43409;48.858;21.906;2022-07-10T04:06:36;3.00;;;1.10;;
57573;SDS011;43409;48.858;21.906;2022-07-10T04:09:05;1.50;;;1.40;;
57573;SDS011;43409;48.858;21.906;2022-07-10T04:11:30;2.00;;;1.25;;
57573;SDS011;43409;48.858;21.906;2022-07-10T04:13:56;1.20;;;1.10;;
57573;SDS011;43409;48.858;21.906;2022-07-10T04:16:21;4.85;;;1.05;;
57573;SDS011;43409;48.858;21.906;2022-07-10T04:18:47;1.20;;;1.10;;
57573;SDS011;43409;48.858;21.906;2022-07-10T04:21:13;1.10;;;1.10;;
57573;SDS011;43409;48.858;21.906;2022-07-10T04:23:38;0.88;;;0.77;;
57573;SDS011;43409;48.858;21.906;2022-07-10T04:26:04;0.80;;;0.80;;
57573;SDS011;43409;48.858;21.906;2022-07-10T04:28:29;3.72;;;0.90;;
57573;SDS011;43409;48.858;21.906;2022-07-10T04:30:54;5.88;;;1.23;;
57573;SDS011;43409;48.858;21.906;2022-07-10T04:33:20;0.95;;;0.90;;
57573;SDS011;43409;48.858;21.906;2022-07-10T04:35:45;2.40;;;1.00;;
57573;SDS011;43409;48.858;21.906;2022-07-10T04:38:11;3.10;;;1.10;;
57573;SDS011;43409;48.858;21.906;2022-07-10T04:40:36;1.52;;;1.30;;
57573;SDS011;43409;48.858;21.906;2022-07-10T04:43:01;1.50;;;1.30;;
57573;SDS011;43409;48.858;21.906;2022-07-10T04:45:27;0.90;;;0.90;;
57573;SDS011;43409;48.858;21.906;2022-07-10T04:47:52;0.90;;;0.90;;
57573;SDS011;43409;48.858;21.906;2022-07-10T04:50:18;1.35;;;1.20;;
57573;SDS011;43409;48.858;21.906;2022-07-10T04:52:43;1.33;;;1.15;;
57573;SDS011;43409;48.858;21.906;2022-07-10T04:55:09;2.15;;;1.33;;
57573;SDS011;43409;48.858;21.906;2022-07-10T04:57:34;3.08;;;1.17;;
57573;SDS011;43409;48.858;21.906;2022-07-10T05:00:00;2.05;;;1.10;;
57573;SDS011;43409;48.858;21.906;2022-07-10T05:02:25;1.33;;;1.23;;
57573;SDS011;43409;48.858;21.906;2022-07-10T05:04:51;1.63;;;1.00;;
57573;SDS011;43409;48.858;21.906;2022-07-10T05:07:16;1.38;;;1.27;;
57573;SDS011;43409;48.858;21.906;2022-07-10T05:09:41;3.20;;;1.00;;
57573;SDS011;43409;48.858;21.906;2022-07-10T05:12:07;1.52;;;1.10;;
57573;SDS011;43409;48.858;21.906;2022-07-10T05:14:32;4.60;;;1.10;;
57573;SDS011;43409;48.858;21.906;2022-07-10T05:16:58;1.88;;;1.30;;
57573;SDS011;43409;48.858;21.906;2022-07-10T05:19:23;2.38;;;1.27;;
57573;SDS011;43409;48.858;21.906;2022-07-10T05:21:49;1.67;;;1.30;;
57573;SDS011;43409;48.858;21.906;2022-07-10T05:24:14;1.42;;;1.10;;
57573;SDS011;43409;48.858;21.906;2022-07-10T05:26:41;1.40;;;1.15;;
57573;SDS011;43409;48.858;21.906;2022-07-10T05:29:06;2.05;;;1.15;;
57573;SDS011;43409;48.858;21.906;2022-07-10T05:31:32;3.63;;;1.33;;
57573;SDS011;43409;48.858;21.906;2022-07-10T05:33:57;1.95;;;1.20;;
57573;SDS011;43409;48.858;21.906;2022-07-10T05:36:22;1.70;;;1.30;;
57573;SDS011;43409;48.858;21.906;2022-07-10T05:38:48;1.52;;;1.42;;
57573;SDS011;43409;48.858;21.906;2022-07-10T05:41:13;1.48;;;1.30;;
57573;SDS011;43409;48.858;21.906;2022-07-10T05:43:39;2.78;;;1.35;;
57573;SDS011;43409;48.858;21.906;2022-07-10T05:46:04;4.60;;;1.77;;
57573;SDS011;43409;48.858;21.906;2022-07-10T05:48:30;2.95;;;1.52;;
57573;SDS011;43409;48.858;21.906;2022-07-10T05:50:56;1.52;;;1.42;;
57573;SDS011;43409;48.858;21.906;2022-07-10T05:53:21;1.90;;;1.30;;
57573;SDS011;43409;48.858;21.906;2022-07-10T05:55:47;1.70;;;1.27;;
57573;SDS011;43409;48.858;21.906;2022-07-10T05:58:15;2.03;;;1.70;;
57573;SDS011;43409;48.858;21.906;2022-07-10T06:00:41;1.40;;;1.30;;
57573;SDS011;43409;48.858;21.906;2022-07-10T06:03:10;3.08;;;1.60;;
57573;SDS011;43409;48.858;21.906;2022-07-10T06:05:36;1.98;;;1.70;;
57573;SDS011;43409;48.858;21.906;2022-07-10T06:08:02;1.40;;;1.30;;
57573;SDS011;43409;48.858;21.906;2022-07-10T06:10:28;1.90;;;1.50;;
57573;SDS011;43409;48.858;21.906;2022-07-10T06:12:53;2.05;;;1.67;;
57573;SDS011;43409;48.858;21.906;2022-07-10T06:15:19;1.60;;;1.35;;
57573;SDS011;43409;48.858;21.906;2022-07-10T06:17:44;4.20;;;1.58;;
57573;SDS011;43409;48.858;21.906;2022-07-10T06:20:09;2.17;;;1.67;;
57573;SDS011;43409;48.858;21.906;2022-07-10T06:22:35;2.10;;;1.70;;
57573;SDS011;43409;48.858;21.906;2022-07-10T06:25:02;2.08;;;1.65;;
57573;SDS011;43409;48.858;21.906;2022-07-10T06:27:30;1.45;;;1.35;;
57573;SDS011;43409;48.858;21.906;2022-07-10T06:29:55;1.70;;;1.60;;
57573;SDS011;43409;48.858;21.906;2022-07-10T06:32:21;3.85;;;1.73;;
57573;SDS011;43409;48.858;21.906;2022-07-10T06:34:46;4.00;;;1.40;;
57573;SDS011;43409;48.858;21.906;2022-07-10T06:37:12;1.70;;;1.60;;
57573;SDS011;43409;48.858;21.906;2022-07-10T06:39:37;2.20;;;1.70;;
57573;SDS011;43409;48.858;21.906;2022-07-10T06:42:03;2.00;;;1.90;;
57573;SDS011;43409;48.858;21.906;2022-07-10T06:44:29;3.83;;;1.50;;
57573;SDS011;43409;48.858;21.906;2022-07-10T06:46:55;4.10;;;1.60;;
57573;SDS011;43409;48.858;21.906;2022-07-10T06:49:39;2.58;;;1.88;;
57573;SDS011;43409;48.858;21.906;2022-07-10T06:52:05;1.67;;;1.58;;
57573;SDS011;43409;48.858;21.906;2022-07-10T06:54:32;3.08;;;1.42;;
57573;SDS011;43409;48.858;21.906;2022-07-10T06:56:57;2.20;;;1.90;;
57573;SDS011;43409;48.858;21.906;2022-07-10T06:59:23;1.77;;;1.67;;
57573;SDS011;43409;48.858;21.906;2022-07-10T07:01:49;2.10;;;1.60;;
57573;SDS011;43409;48.858;21.906;2022-07-10T07:04:14;5.28;;;1.58;;
57573;SDS011;43409;48.858;21.906;2022-07-10T07:06:39;1.58;;;1.40;;
57573;SDS011;43409;48.858;21.906;2022-07-10T07:09:05;2.00;;;1.83;;
57573;SDS011;43409;48.858;21.906;2022-07-10T07:11:30;3.20;;;2.00;;
57573;SDS011;43409;48.858;21.906;2022-07-10T07:13:56;1.92;;;1.83;;
57573;SDS011;43409;48.858;21.906;2022-07-10T07:16:21;1.90;;;1.70;;
57573;SDS011;43409;48.858;21.906;2022-07-10T07:18:52;2.08;;;1.98;;
57573;SDS011;43409;48.858;21.906;2022-07-10T07:21:20;2.42;;;1.80;;
57573;SDS011;43409;48.858;21.906;2022-07-10T07:24:04;2.83;;;1.80;;
57573;SDS011;43409;48.858;21.906;2022-07-10T07:26:30;1.70;;;1.60;;
57573;SDS011;43409;48.858;21.906;2022-07-10T07:28:56;1.80;;;1.70;;
57573;SDS011;43409;48.858;21.906;2022-07-10T07:31:21;3.58;;;1.30;;
57573;SDS011;43409;48.858;21.906;2022-07-10T07:33:47;3.72;;;1.65;;
57573;SDS011;43409;48.858;21.906;2022-07-10T07:36:12;2.30;;;1.98;;
57573;SDS011;43409;48.858;21.906;2022-07-10T07:38:38;1.92;;;1.70;;
57573;SDS011;43409;48.858;21.906;2022-07-10T07:41:03;2.53;;;1.80;;
57573;SDS011;43409;48.858;21.906;2022-07-10T07:43:29;2.92;;;1.95;;
57573;SDS011;43409;48.858;21.906;2022-07-10T07:45:54;4.68;;;1.83;;
57573;SDS011;43409;48.858;21.906;2022-07-10T07:48:20;1.70;;;1.60;;
57573;SDS011;43409;48.858;21.906;2022-07-10T07:50:45;1.60;;;1.50;;
57573;SDS011;43409;48.858;21.906;2022-07-10T07:53:10;1.80;;;1.70;;
57573;SDS011;43409;48.858;21.906;2022-07-10T07:55:37;2.20;;;1.80;;
57573;SDS011;43409;48.858;21.906;2022-07-10T07:58:02;2.35;;;1.70;;
57573;SDS011;43409;48.858;21.906;2022-07-10T08:00:29;1.60;;;1.50;;
57573;SDS011;43409;48.858;21.906;2022-07-10T08:02:55;1.70;;;1.60;;
57573;SDS011;43409;48.858;21.906;2022-07-10T08:05:21;1.98;;;1.55;;
57573;SDS011;43409;48.858;21.906;2022-07-10T08:07:57;2.53;;;1.52;;
57573;SDS011;43409;48.858;21.906;2022-07-10T08:10:31;2.25;;;1.45;;
57573;SDS011;43409;48.858;21.906;2022-07-10T08:12:57;1.45;;;1.30;;
57573;SDS011;43409;48.858;21.906;2022-07-10T08:15:22;1.48;;;1.13;;
57573;SDS011;43409;48.858;21.906;2022-07-10T08:17:49;1.30;;;1.25;;
57573;SDS011;43409;48.858;21.906;2022-07-10T08:20:15;4.47;;;0.90;;
57573;SDS011;43409;48.858;21.906;2022-07-10T08:22:41;3.95;;;1.00;;
57573;SDS011;43409;48.858;21.906;2022-07-10T08:25:08;1.05;;;0.95;;
57573;SDS011;43409;48.858;21.906;2022-07-10T08:27:34;0.77;;;0.77;;
57573;SDS011;43409;48.858;21.906;2022-07-10T08:30:00;1.90;;;1.00;;
57573;SDS011;43409;48.858;21.906;2022-07-10T08:32:25;0.90;;;0.80;;
57573;SDS011;43409;48.858;21.906;2022-07-10T08:34:52;1.10;;;0.95;;
57573;SDS011;43409;48.858;21.906;2022-07-10T08:37:18;0.80;;;0.80;;
57573;SDS011;43409;48.858;21.906;2022-07-10T08:39:44;0.98;;;0.75;;
57573;SDS011;43409;48.858;21.906;2022-07-10T08:42:10;0.70;;;0.70;;
57573;SDS011;43409;48.858;21.906;2022-07-10T08:44:36;0.73;;;0.65;;
57573;SDS011;43409;48.858;21.906;2022-07-10T08:47:02;2.92;;;0.80;;
57573;SDS011;43409;48.858;21.906;2022-07-10T08:49:29;1.05;;;0.80;;
57573;SDS011;43409;48.858;21.906;2022-07-10T08:52:02;1.55;;;0.90;;
57573;SDS011;43409;48.858;21.906;2022-07-10T08:54:28;1.05;;;0.70;;
57573;SDS011;43409;48.858;21.906;2022-07-10T08:56:58;0.75;;;0.75;;
57573;SDS011;43409;48.858;21.906;2022-07-10T08:59:27;1.25;;;0.77;;
57573;SDS011;43409;48.858;21.906;2022-07-10T09:01:54;0.85;;;0.70;;
57573;SDS011;43409;48.858;21.906;2022-07-10T09:04:21;0.75;;;0.75;;
57573;SDS011;43409;48.858;21.906;2022-07-10T09:06:48;0.70;;;0.70;;
57573;SDS011;43409;48.858;21.906;2022-07-10T09:09:13;1.02;;;0.93;;
57573;SDS011;43409;48.858;21.906;2022-07-10T09:11:39;1.33;;;1.10;;
57573;SDS011;43409;48.858;21.906;2022-07-10T09:14:07;1.27;;;0.73;;
57573;SDS011;43409;48.858;21.906;2022-07-10T09:16:35;0.68;;;0.68;;
57573;SDS011;43409;48.858;21.906;2022-07-10T09:21:46;0.60;;;0.60;;
57573;SDS011;43409;48.858;21.906;2022-07-10T09:24:13;1.85;;;0.90;;
57573;SDS011;43409;48.858;21.906;2022-07-10T09:26:42;5.82;;;0.70;;
57573;SDS011;43409;48.858;21.906;2022-07-10T09:29:11;3.22;;;0.50;;
57573;SDS011;43409;48.858;21.906;2022-07-10T09:31:50;2.35;;;0.63;;
57573;SDS011;43409;48.858;21.906;2022-07-10T09:34:18;7.30;;;0.60;;
57573;SDS011;43409;48.858;21.906;2022-07-10T09:37:21;0.60;;;0.47;;
57573;SDS011;43409;48.858;21.906;2022-07-10T09:39:59;5.80;;;0.45;;
57573;SDS011;43409;48.858;21.906;2022-07-10T09:42:40;0.88;;;0.50;;
57573;SDS011;43409;48.858;21.906;2022-07-10T09:47:41;0.85;;;0.63;;
57573;SDS011;43409;48.858;21.906;2022-07-10T09:50:24;0.65;;;0.50;;
57573;SDS011;43409;48.858;21.906;2022-07-10T09:52:50;1.20;;;0.60;;
57573;SDS011;43409;48.858;21.906;2022-07-10T09:55:21;0.77;;;0.50;;
57573;SDS011;43409;48.858;21.906;2022-07-10T09:57:58;9.20;;;0.63;;
57573;SDS011;43409;48.858;21.906;2022-07-10T10:00:43;0.85;;;0.50;;
57573;SDS011;43409;48.858;21.906;2022-07-10T10:03:11;0.88;;;0.50;;
57573;SDS011;43409;48.858;21.906;2022-07-10T10:05:44;4.35;;;0.85;;
57573;SDS011;43409;48.858;21.906;2022-07-10T10:08:24;1.52;;;0.65;;
57573;SDS011;43409;48.858;21.906;2022-07-10T10:10:52;1.27;;;0.47;;
57573;SDS011;43409;48.858;21.906;2022-07-10T10:13:21;1.33;;;0.35;;
57573;SDS011;43409;48.858;21.906;2022-07-10T10:15:49;2.35;;;0.57;;
57573;SDS011;43409;48.858;21.906;2022-07-10T10:18:19;0.45;;;0.40;;
57573;SDS011;43409;48.858;21.906;2022-07-10T10:20:46;0.85;;;0.45;;
57573;SDS011;43409;48.858;21.906;2022-07-10T10:23:13;0.63;;;0.50;;
57573;SDS011;43409;48.858;21.906;2022-07-10T10:25:45;1.23;;;0.70;;
57573;SDS011;43409;48.858;21.906;2022-07-10T10:28:12;2.25;;;0.60;;
57573;SDS011;43409;48.858;21.906;2022-07-10T10:30:39;0.63;;;0.50;;
57573;SDS011;43409;48.858;21.906;2022-07-10T10:35:57;0.68;;;0.52;;
57573;SDS011;43409;48.858;21.906;2022-07-10T10:38:23;1.70;;;0.75;;
57573;SDS011;43409;48.858;21.906;2022-07-10T10:40:49;0.40;;;0.38;;
57573;SDS011;43409;48.858;21.906;2022-07-10T10:43:24;5.20;;;0.70;;
57573;SDS011;43409;48.858;21.906;2022-07-10T10:45:52;1.77;;;0.60;;
57573;SDS011;43409;48.858;21.906;2022-07-10T10:48:18;0.80;;;0.70;;
57573;SDS011;43409;48.858;21.906;2022-07-10T10:50:47;0.68;;;0.50;;
57573;SDS011;43409;48.858;21.906;2022-07-10T10:55:39;1.50;;;0.60;;
57573;SDS011;43409;48.858;21.906;2022-07-10T10:58:16;2.72;;;0.63;;
57573;SDS011;43409;48.858;21.906;2022-07-10T11:00:49;1.10;;;0.60;;
57573;SDS011;43409;48.858;21.906;2022-07-10T11:03:18;0.70;;;0.60;;
57573;SDS011;43409;48.858;21.906;2022-07-10T11:05:49;0.60;;;0.55;;
57573;SDS011;43409;48.858;21.906;2022-07-10T11:08:34;0.90;;;0.50;;
57573;SDS011;43409;48.858;21.906;2022-07-10T11:13:58;3.40;;;0.65;;
57573;SDS011;43409;48.858;21.906;2022-07-10T11:16:24;0.75;;;0.63;;
57573;SDS011;43409;48.858;21.906;2022-07-10T11:18:53;1.20;;;0.60;;
57573;SDS011;43409;48.858;21.906;2022-07-10T11:21:23;0.60;;;0.57;;
57573;SDS011;43409;48.858;21.906;2022-07-10T11:27:06;0.90;;;0.60;;
57573;SDS011;43409;48.858;21.906;2022-07-10T11:29:40;0.77;;;0.70;;
57573;SDS011;43409;48.858;21.906;2022-07-10T11:32:06;1.45;;;0.70;;
57573;SDS011;43409;48.858;21.906;2022-07-10T11:34:35;2.50;;;0.73;;
57573;SDS011;43409;48.858;21.906;2022-07-10T11:37:02;0.90;;;0.70;;
57573;SDS011;43409;48.858;21.906;2022-07-10T11:39:28;0.50;;;0.50;;
57573;SDS011;43409;48.858;21.906;2022-07-10T11:41:54;1.08;;;0.75;;
57573;SDS011;43409;48.858;21.906;2022-07-10T11:44:19;0.77;;;0.70;;
57573;SDS011;43409;48.858;21.906;2022-07-10T11:46:46;1.95;;;0.80;;
57573;SDS011;43409;48.858;21.906;2022-07-10T11:49:14;1.15;;;0.80;;
57573;SDS011;43409;48.858;21.906;2022-07-10T11:51:41;1.15;;;0.70;;
57573;SDS011;43409;48.858;21.906;2022-07-10T11:54:08;2.33;;;0.70;;
57573;SDS011;43409;48.858;21.906;2022-07-10T11:56:38;0.98;;;0.77;;
57573;SDS011;43409;48.858;21.906;2022-07-10T11:59:07;0.70;;;0.60;;
57573;SDS011;43409;48.858;21.906;2022-07-10T12:01:46;1.00;;;0.70;;
57573;SDS011;43409;48.858;21.906;2022-07-10T12:04:17;2.58;;;0.50;;
57573;SDS011;43409;48.858;21.906;2022-07-10T12:06:44;0.93;;;0.80;;
57573;SDS011;43409;48.858;21.906;2022-07-10T12:09:15;0.85;;;0.80;;
57573;SDS011;43409;48.858;21.906;2022-07-10T12:11:43;0.70;;;0.70;;
57573;SDS011;43409;48.858;21.906;2022-07-10T12:14:22;2.25;;;0.70;;
57573;SDS011;43409;48.858;21.906;2022-07-10T12:16:51;1.13;;;0.90;;
57573;SDS011;43409;48.858;21.906;2022-07-10T12:19:28;1.88;;;0.73;;
57573;SDS011;43409;48.858;21.906;2022-07-10T12:21:58;0.70;;;0.70;;
57573;SDS011;43409;48.858;21.906;2022-07-10T12:24:25;1.55;;;1.08;;
57573;SDS011;43409;48.858;21.906;2022-07-10T12:26:51;0.80;;;0.80;;
57573;SDS011;43409;48.858;21.906;2022-07-10T12:31:43;3.42;;;0.90;;
57573;SDS011;43409;48.858;21.906;2022-07-10T12:34:10;1.88;;;0.80;;
57573;SDS011;43409;48.858;21.906;2022-07-10T12:39:11;1.17;;;0.77;;
57573;SDS011;43409;48.858;21.906;2022-07-10T12:44:40;0.82;;;0.70;;
57573;SDS011;43409;48.858;21.906;2022-07-10T12:47:07;1.55;;;0.70;;
57573;SDS011;43409;48.858;21.906;2022-07-10T12:49:47;0.98;;;0.60;;
57573;SDS011;43409;48.858;21.906;2022-07-10T12:52:40;0.85;;;0.65;;
57573;SDS011;43409;48.858;21.906;2022-07-10T13:00:29;0.63;;;0.50;;
57573;SDS011;43409;48.858;21.906;2022-07-10T13:08:16;2.40;;;0.50;;
57573;SDS011;43409;48.858;21.906;2022-07-10T13:10:50;1.33;;;0.98;;
57573;SDS011;43409;48.858;21.906;2022-07-10T13:13:17;0.93;;;0.55;;
57573;SDS011;43409;48.858;21.906;2022-07-10T13:15:43;0.50;;;0.50;;
57573;SDS011;43409;48.858;21.906;2022-07-10T13:18:15;2.03;;;0.60;;
57573;SDS011;43409;48.858;21.906;2022-07-10T13:20:45;1.85;;;0.65;;
57573;SDS011;43409;48.858;21.906;2022-07-10T13:23:12;1.13;;;0.70;;
57573;SDS011;43409;48.858;21.906;2022-07-10T13:25:37;2.45;;;0.60;;
57573;SDS011;43409;48.858;21.906;2022-07-10T13:28:03;0.80;;;0.70;;
57573;SDS011;43409;48.858;21.906;2022-07-10T13:30:30;0.80;;;0.65;;
57573;SDS011;43409;48.858;21.906;2022-07-10T13:32:55;2.08;;;0.60;;
57573;SDS011;43409;48.858;21.906;2022-07-10T13:35:20;2.67;;;0.70;;
57573;SDS011;43409;48.858;21.906;2022-07-10T13:37:46;0.73;;;0.50;;
57573;SDS011;43409;48.858;21.906;2022-07-10T13:40:12;3.40;;;0.70;;
57573;SDS011;43409;48.858;21.906;2022-07-10T13:42:38;0.82;;;0.60;;
57573;SDS011;43409;48.858;21.906;2022-07-10T13:45:04;1.45;;;0.50;;
57573;SDS011;43409;48.858;21.906;2022-07-10T13:47:30;1.55;;;0.68;;
57573;SDS011;43409;48.858;21.906;2022-07-10T13:49:55;1.98;;;0.38;;
57573;SDS011;43409;48.858;21.906;2022-07-10T13:52:21;0.80;;;0.50;;
57573;SDS011;43409;48.858;21.906;2022-07-10T13:54:46;0.95;;;0.60;;
57573;SDS011;43409;48.858;21.906;2022-07-10T13:57:11;4.43;;;0.75;;
57573;SDS011;43409;48.858;21.906;2022-07-10T13:59:37;0.60;;;0.38;;
57573;SDS011;43409;48.858;21.906;2022-07-10T14:02:03;1.88;;;0.60;;
57573;SDS011;43409;48.858;21.906;2022-07-10T14:04:29;1.25;;;0.57;;
57573;SDS011;43409;48.858;21.906;2022-07-10T14:06:55;1.90;;;0.60;;
57573;SDS011;43409;48.858;21.906;2022-07-10T14:09:20;2.72;;;0.70;;
57573;SDS011;43409;48.858;21.906;2022-07-10T14:11:48;2.97;;;0.70;;
57573;SDS011;43409;48.858;21.906;2022-07-10T14:14:14;0.60;;;0.60;;
57573;SDS011;43409;48.858;21.906;2022-07-10T14:16:39;1.25;;;0.60;;
57573;SDS011;43409;48.858;21.906;2022-07-10T14:19:05;1.10;;;0.73;;
57573;SDS011;43409;48.858;21.906;2022-07-10T14:21:30;1.35;;;0.80;;
57573;SDS011;43409;48.858;21.906;2022-07-10T14:23:55;0.70;;;0.60;;
57573;SDS011;43409;48.858;21.906;2022-07-10T14:26:21;1.55;;;0.70;;
57573;SDS011;43409;48.858;21.906;2022-07-10T14:28:47;3.65;;;0.52;;
57573;SDS011;43409;48.858;21.906;2022-07-10T14:31:13;1.52;;;0.90;;
57573;SDS011;43409;48.858;21.906;2022-07-10T14:33:38;1.35;;;0.85;;
57573;SDS011;43409;48.858;21.906;2022-07-10T14:36:04;2.72;;;0.85;;
57573;SDS011;43409;48.858;21.906;2022-07-10T14:38:31;3.05;;;0.70;;
57573;SDS011;43409;48.858;21.906;2022-07-10T14:40:56;1.98;;;0.60;;
57573;SDS011;43409;48.858;21.906;2022-07-10T14:43:22;1.42;;;0.75;;
57573;SDS011;43409;48.858;21.906;2022-07-10T14:45:49;0.75;;;0.70;;
57573;SDS011;43409;48.858;21.906;2022-07-10T14:48:15;1.40;;;0.70;;
57573;SDS011;43409;48.858;21.906;2022-07-10T14:50:40;3.85;;;0.75;;
57573;SDS011;43409;48.858;21.906;2022-07-10T14:53:06;0.82;;;0.68;;
57573;SDS011;43409;48.858;21.906;2022-07-10T14:55:33;1.65;;;0.73;;
57573;SDS011;43409;48.858;21.906;2022-07-10T14:57:58;2.60;;;0.80;;
57573;SDS011;43409;48.858;21.906;2022-07-10T15:00:24;1.88;;;0.60;;
57573;SDS011;43409;48.858;21.906;2022-07-10T15:02:49;0.75;;;0.50;;
57573;SDS011;43409;48.858;21.906;2022-07-10T15:05:15;1.25;;;0.80;;
57573;SDS011;43409;48.858;21.906;2022-07-10T15:07:40;2.92;;;0.68;;
57573;SDS011;43409;48.858;21.906;2022-07-10T15:10:06;2.40;;;0.70;;